Cedar Park's Hourly Summary for Friday, May 11, 2018
Hour Temp
(f)
RH
(%)
Solar Rad.
(MJ/m2)
Rainfall
(in)
Wind
(mph)
5/11/2018 12:00 AM 73 80 0 0 8.5
5/11/2018 1:00 AM 71 84 0 0 6.89
5/11/2018 2:00 AM 70 89 0 0 6.65
5/11/2018 3:00 AM 69 89 0 0 6.13
5/11/2018 4:00 AM 69 89 0 0 6.13
5/11/2018 5:00 AM 69 88 0 0 5.8
5/11/2018 6:00 AM 69 88 0.01 0 5.68
5/11/2018 7:00 AM 68 88 0.21 0 5.81
5/11/2018 8:00 AM 71 88 1.15 0 7.47
5/11/2018 9:00 AM 73 79 1.81 0 9.32
5/11/2018 10:00 AM 75 67 2.05 0 9.32
5/11/2018 11:00 AM 77 61 2.65 0 9.94
5/11/2018 12:00 PM 80 52 3.16 0 9.94
5/11/2018 1:00 PM 82 48 3.6 0 9.09
5/11/2018 2:00 PM 84 46 3.6 0 8.87
5/11/2018 3:00 PM 84 42 3.46 0 7.19
5/11/2018 4:00 PM 85 39 2.48 0 7.14
5/11/2018 5:00 PM 85 39 1.88 0 8.3
5/11/2018 6:00 PM 85 40 0.45 0 8.3
5/11/2018 7:00 PM 85 43 0.24 0 7.49
5/11/2018 8:00 PM 83 47 0.21 0 6.7
5/11/2018 9:00 PM 81 54 0.01 0 7.8
5/11/2018 10:00 PM 79 64 0 0 8.71
5/11/2018 11:00 PM 76 77 0 0 8.71
Data Summary 76 65 26.97 0.00 7.75